sensor_id;sensor_type;location;lat;lon;timestamp;pressure;altitude;pressure_sealevel;temperature;humidity
79242;BME280;68670;48.720;9.118;2023-05-07T00:00:08;96742.88;;;12.32;76.83
79242;BME280;68670;48.720;9.118;2023-05-07T00:02:34;96751.16;;;12.37;76.27
79242;BME280;68670;48.720;9.118;2023-05-07T00:04:59;96745.13;;;12.40;75.83
79242;BME280;68670;48.720;9.118;2023-05-07T00:07:27;96745.97;;;12.40;76.25
79242;BME280;68670;48.720;9.118;2023-05-07T00:09:52;96737.97;;;12.39;76.33
79242;BME280;68670;48.720;9.118;2023-05-07T00:12:18;96744.81;;;12.36;76.56
79242;BME280;68670;48.720;9.118;2023-05-07T00:14:43;96742.91;;;12.37;76.08
79242;BME280;68670;48.720;9.118;2023-05-07T00:17:08;96745.06;;;12.30;76.33
79242;BME280;68670;48.720;9.118;2023-05-07T00:19:34;96747.81;;;12.35;76.49
79242;BME280;68670;48.720;9.118;2023-05-07T00:21:59;96742.03;;;12.31;76.25
79242;BME280;68670;48.720;9.118;2023-05-07T00:24:24;96750.03;;;12.33;78.05
79242;BME280;68670;48.720;9.118;2023-05-07T00:26:50;96743.59;;;12.22;77.23
79242;BME280;68670;48.720;9.118;2023-05-07T00:29:15;96731.78;;;12.22;77.15
79242;BME280;68670;48.720;9.118;2023-05-07T00:31:41;96736.75;;;12.25;76.96
79242;BME280;68670;48.720;9.118;2023-05-07T00:34:06;96736.81;;;12.30;76.84
79242;BME280;68670;48.720;9.118;2023-05-07T00:36:34;96740.84;;;12.22;77.16
79242;BME280;68670;48.720;9.118;2023-05-07T00:39:00;96740.00;;;12.22;76.91
79242;BME280;68670;48.720;9.118;2023-05-07T00:41:27;96737.06;;;12.28;76.53
79242;BME280;68670;48.720;9.118;2023-05-07T00:43:52;96732.91;;;12.26;76.53
79242;BME280;68670;48.720;9.118;2023-05-07T00:46:20;96722.00;;;12.31;76.79
79242;BME280;68670;48.720;9.118;2023-05-07T00:48:46;96727.50;;;12.36;76.55
79242;BME280;68670;48.720;9.118;2023-05-07T00:51:13;96719.84;;;12.38;77.63
79242;BME280;68670;48.720;9.118;2023-05-07T00:53:39;96718.72;;;12.34;78.44
79242;BME280;68670;48.720;9.118;2023-05-07T00:56:05;96725.25;;;12.28;77.70
79242;BME280;68670;48.720;9.118;2023-05-07T00:58:32;96720.47;;;12.18;77.62
79242;BME280;68670;48.720;9.118;2023-05-07T01:00:59;96715.28;;;12.22;77.33
79242;BME280;68670;48.720;9.118;2023-05-07T01:03:25;96728.13;;;12.16;77.20
79242;BME280;68670;48.720;9.118;2023-05-07T01:05:52;96716.81;;;12.13;77.55
79242;BME280;68670;48.720;9.118;2023-05-07T01:08:18;96718.81;;;12.17;77.15
79242;BME280;68670;48.720;9.118;2023-05-07T01:10:44;96726.97;;;12.12;77.26
79242;BME280;68670;48.720;9.118;2023-05-07T01:13:12;96729.97;;;12.10;77.54
79242;BME280;68670;48.720;9.118;2023-05-07T01:15:38;96732.16;;;12.08;77.84
79242;BME280;68670;48.720;9.118;2023-05-07T01:18:03;96727.31;;;12.16;78.41
79242;BME280;68670;48.720;9.118;2023-05-07T01:20:31;96722.63;;;12.16;78.41
79242;BME280;68670;48.720;9.118;2023-05-07T01:22:57;96723.41;;;12.11;78.46
79242;BME280;68670;48.720;9.118;2023-05-07T01:25:23;96718.38;;;12.03;79.27
79242;BME280;68670;48.720;9.118;2023-05-07T01:27:48;96715.00;;;11.96;79.09
79242;BME280;68670;48.720;9.118;2023-05-07T01:30:18;96719.09;;;11.94;78.68
79242;BME280;68670;48.720;9.118;2023-05-07T01:33:09;96717.63;;;11.86;78.77
79242;BME280;68670;48.720;9.118;2023-05-07T01:35:39;96723.09;;;11.86;78.66
79242;BME280;68670;48.720;9.118;2023-05-07T01:38:08;96712.72;;;11.88;78.55
79242;BME280;68670;48.720;9.118;2023-05-07T01:40:34;96708.31;;;11.87;78.51
79242;BME280;68670;48.720;9.118;2023-05-07T01:43:03;96717.69;;;11.91;78.88
79242;BME280;68670;48.720;9.118;2023-05-07T01:45:31;96717.75;;;11.96;78.46
79242;BME280;68670;48.720;9.118;2023-05-07T01:48:01;96718.31;;;11.98;78.27
79242;BME280;68670;48.720;9.118;2023-05-07T01:50:29;96719.41;;;11.97;78.39
79242;BME280;68670;48.720;9.118;2023-05-07T01:52:55;96719.94;;;11.94;78.44
79242;BME280;68670;48.720;9.118;2023-05-07T01:55:20;96708.44;;;11.97;78.62
79242;BME280;68670;48.720;9.118;2023-05-07T01:57:47;96716.66;;;11.97;78.61
79242;BME280;68670;48.720;9.118;2023-05-07T02:00:13;96709.97;;;11.88;78.72
79242;BME280;68670;48.720;9.118;2023-05-07T02:02:38;96716.78;;;11.86;78.87
79242;BME280;68670;48.720;9.118;2023-05-07T02:05:04;96718.44;;;11.87;78.42
79242;BME280;68670;48.720;9.118;2023-05-07T02:07:30;96715.97;;;11.85;78.77
79242;BME280;68670;48.720;9.118;2023-05-07T02:09:55;96709.06;;;11.83;78.97
79242;BME280;68670;48.720;9.118;2023-05-07T02:12:21;96713.66;;;11.77;79.26
79242;BME280;68670;48.720;9.118;2023-05-07T02:14:47;96716.72;;;11.81;79.41
79242;BME280;68670;48.720;9.118;2023-05-07T02:17:12;96713.16;;;11.80;79.35
79242;BME280;68670;48.720;9.118;2023-05-07T02:19:40;96715.31;;;11.78;79.59
79242;BME280;68670;48.720;9.118;2023-05-07T02:22:05;96710.91;;;11.77;79.53
79242;BME280;68670;48.720;9.118;2023-05-07T02:24:33;96721.97;;;11.82;79.40
79242;BME280;68670;48.720;9.118;2023-05-07T02:26:58;96718.63;;;11.80;79.51
79242;BME280;68670;48.720;9.118;2023-05-07T02:29:23;96717.97;;;11.73;79.77
79242;BME280;68670;48.720;9.118;2023-05-07T02:31:48;96714.13;;;11.74;79.68
79242;BME280;68670;48.720;9.118;2023-05-07T02:34:18;96712.19;;;11.69;79.92
79242;BME280;68670;48.720;9.118;2023-05-07T02:36:46;96711.34;;;11.69;80.04
79242;BME280;68670;48.720;9.118;2023-05-07T02:39:12;96716.75;;;11.64;79.96
79242;BME280;68670;48.720;9.118;2023-05-07T02:41:40;96721.66;;;11.62;80.02
79242;BME280;68670;48.720;9.118;2023-05-07T02:44:06;96717.91;;;11.68;79.57
79242;BME280;68670;48.720;9.118;2023-05-07T02:46:31;96718.69;;;11.63;79.38
79242;BME280;68670;48.720;9.118;2023-05-07T02:48:56;96716.44;;;11.60;79.45
79242;BME280;68670;48.720;9.118;2023-05-07T02:51:22;96718.16;;;11.66;79.08
79242;BME280;68670;48.720;9.118;2023-05-07T02:53:47;96722.31;;;11.69;79.23
79242;BME280;68670;48.720;9.118;2023-05-07T02:56:13;96720.00;;;11.61;79.53
79242;BME280;68670;48.720;9.118;2023-05-07T02:58:38;96715.84;;;11.58;79.59
79242;BME280;68670;48.720;9.118;2023-05-07T03:01:09;96713.38;;;11.57;79.62
79242;BME280;68670;48.720;9.118;2023-05-07T03:03:35;96705.06;;;11.52;80.58
79242;BME280;68670;48.720;9.118;2023-05-07T03:06:01;96704.63;;;11.60;80.04
79242;BME280;68670;48.720;9.118;2023-05-07T03:08:30;96700.22;;;11.59;80.43
79242;BME280;68670;48.720;9.118;2023-05-07T03:10:56;96690.28;;;11.53;80.97
79242;BME280;68670;48.720;9.118;2023-05-07T03:13:21;96693.63;;;11.38;81.13
79242;BME280;68670;48.720;9.118;2023-05-07T03:15:47;96697.66;;;11.30;80.89
79242;BME280;68670;48.720;9.118;2023-05-07T03:18:12;96686.03;;;11.23;80.65
79242;BME280;68670;48.720;9.118;2023-05-07T03:20:37;96692.00;;;11.20;80.84
79242;BME280;68670;48.720;9.118;2023-05-07T03:23:03;96697.81;;;11.24;80.38
79242;BME280;68670;48.720;9.118;2023-05-07T03:25:28;96690.75;;;11.28;80.39
79242;BME280;68670;48.720;9.118;2023-05-07T03:27:55;96689.69;;;11.29;79.80
79242;BME280;68670;48.720;9.118;2023-05-07T03:30:20;96687.69;;;11.24;79.96
79242;BME280;68670;48.720;9.118;2023-05-07T03:32:46;96694.34;;;11.11;80.39
79242;BME280;68670;48.720;9.118;2023-05-07T03:35:14;96696.75;;;11.08;80.23
79242;BME280;68670;48.720;9.118;2023-05-07T03:37:39;96699.81;;;11.11;80.16
79242;BME280;68670;48.720;9.118;2023-05-07T03:40:05;96696.84;;;11.13;79.89
79242;BME280;68670;48.720;9.118;2023-05-07T03:42:31;96701.25;;;11.14;81.17
79242;BME280;68670;48.720;9.118;2023-05-07T03:44:56;96699.81;;;11.11;80.64
79242;BME280;68670;48.720;9.118;2023-05-07T03:47:24;96695.47;;;10.94;80.64
79242;BME280;68670;48.720;9.118;2023-05-07T03:49:49;96698.03;;;10.84;81.47
79242;BME280;68670;48.720;9.118;2023-05-07T03:52:15;96703.50;;;10.84;81.80
79242;BME280;68670;48.720;9.118;2023-05-07T03:54:47;96698.53;;;10.81;82.36
79242;BME280;68670;48.720;9.118;2023-05-07T03:57:13;96702.34;;;10.80;81.88
79242;BME280;68670;48.720;9.118;2023-05-07T03:59:40;96707.91;;;10.85;82.30
79242;BME280;68670;48.720;9.118;2023-05-07T04:02:06;96706.16;;;10.78;82.13
79242;BME280;68670;48.720;9.118;2023-05-07T04:04:31;96712.72;;;10.77;81.70
79242;BME280;68670;48.720;9.118;2023-05-07T04:06:58;96716.28;;;10.78;81.69
79242;BME280;68670;48.720;9.118;2023-05-07T04:09:24;96716.53;;;10.76;81.36
79242;BME280;68670;48.720;9.118;2023-05-07T04:11:51;96714.28;;;10.73;81.52
79242;BME280;68670;48.720;9.118;2023-05-07T04:14:17;96712.91;;;10.71;81.82
79242;BME280;68670;48.720;9.118;2023-05-07T04:16:42;96715.31;;;10.67;81.77
79242;BME280;68670;48.720;9.118;2023-05-07T04:19:07;96715.38;;;10.72;81.64
79242;BME280;68670;48.720;9.118;2023-05-07T04:21:35;96721.94;;;10.71;81.67
79242;BME280;68670;48.720;9.118;2023-05-07T04:24:00;96727.09;;;10.68;81.57
79242;BME280;68670;48.720;9.118;2023-05-07T04:26:25;96724.94;;;10.70;81.35
79242;BME280;68670;48.720;9.118;2023-05-07T04:28:53;96725.25;;;10.73;81.42
79242;BME280;68670;48.720;9.118;2023-05-07T04:31:20;96726.59;;;10.71;81.28
79242;BME280;68670;48.720;9.118;2023-05-07T04:33:46;96726.25;;;10.67;81.50
79242;BME280;68670;48.720;9.118;2023-05-07T04:36:11;96725.19;;;10.68;81.77
79242;BME280;68670;48.720;9.118;2023-05-07T04:38:36;96731.31;;;10.75;82.26
79242;BME280;68670;48.720;9.118;2023-05-07T04:41:03;96729.59;;;10.69;82.13
79242;BME280;68670;48.720;9.118;2023-05-07T04:43:31;96726.25;;;10.67;82.06
79242;BME280;68670;48.720;9.118;2023-05-07T04:45:57;96727.09;;;10.68;82.19
79242;BME280;68670;48.720;9.118;2023-05-07T04:48:22;96727.09;;;10.68;82.18
79242;BME280;68670;48.720;9.118;2023-05-07T04:50:50;96734.03;;;10.75;82.12
79242;BME280;68670;48.720;9.118;2023-05-07T04:53:19;96731.88;;;10.77;82.43
79242;BME280;68670;48.720;9.118;2023-05-07T04:55:45;96729.25;;;10.83;81.83
79242;BME280;68670;48.720;9.118;2023-05-07T04:58:14;96741.94;;;10.89;82.99
79242;BME280;68670;48.720;9.118;2023-05-07T05:00:42;96736.38;;;10.84;82.96
79242;BME280;68670;48.720;9.118;2023-05-07T05:03:10;96736.88;;;10.81;82.17
79242;BME280;68670;48.720;9.118;2023-05-07T05:05:40;96743.69;;;10.95;81.52
79242;BME280;68670;48.720;9.118;2023-05-07T05:08:05;96740.72;;;10.96;81.62
79242;BME280;68670;48.720;9.118;2023-05-07T05:10:35;96754.50;;;11.01;81.88
79242;BME280;68670;48.720;9.118;2023-05-07T05:13:01;96749.16;;;11.11;82.15
79242;BME280;68670;48.720;9.118;2023-05-07T05:15:28;96751.66;;;11.13;81.58
79242;BME280;68670;48.720;9.118;2023-05-07T05:17:53;96756.63;;;11.16;82.99
79242;BME280;68670;48.720;9.118;2023-05-07T05:20:21;96757.56;;;11.22;82.33
79242;BME280;68670;48.720;9.118;2023-05-07T05:22:46;96763.88;;;11.22;81.92
79242;BME280;68670;48.720;9.118;2023-05-07T05:25:11;96759.13;;;11.34;81.52
79242;BME280;68670;48.720;9.118;2023-05-07T05:27:37;96760.91;;;11.45;81.57
79242;BME280;68670;48.720;9.118;2023-05-07T05:30:03;96760.75;;;11.52;81.43
79242;BME280;68670;48.720;9.118;2023-05-07T05:32:32;96758.41;;;11.61;81.33
79242;BME280;68670;48.720;9.118;2023-05-07T05:34:57;96762.34;;;11.70;80.99
79242;BME280;68670;48.720;9.118;2023-05-07T05:37:22;96771.03;;;11.78;80.13
79242;BME280;68670;48.720;9.118;2023-05-07T05:39:50;96764.84;;;11.88;80.36
79242;BME280;68670;48.720;9.118;2023-05-07T05:42:16;96761.16;;;11.99;81.12
79242;BME280;68670;48.720;9.118;2023-05-07T05:44:41;96765.94;;;12.09;80.35
79242;BME280;68670;48.720;9.118;2023-05-07T05:47:06;96756.75;;;12.20;81.21
79242;BME280;68670;48.720;9.118;2023-05-07T05:49:32;96756.03;;;12.30;79.78
79242;BME280;68670;48.720;9.118;2023-05-07T05:52:00;96760.53;;;12.41;79.96
79242;BME280;68670;48.720;9.118;2023-05-07T05:54:25;96752.41;;;12.51;80.13
79242;BME280;68670;48.720;9.118;2023-05-07T05:56:53;96759.69;;;12.62;78.53
79242;BME280;68670;48.720;9.118;2023-05-07T05:59:18;96772.41;;;12.73;77.31
79242;BME280;68670;48.720;9.118;2023-05-07T06:01:46;96769.50;;;12.85;78.30
79242;BME280;68670;48.720;9.118;2023-05-07T06:04:14;96782.56;;;13.00;76.62
79242;BME280;68670;48.720;9.118;2023-05-07T06:06:39;96779.63;;;13.11;73.08
79242;BME280;68670;48.720;9.118;2023-05-07T06:09:05;96776.22;;;13.26;71.32
79242;BME280;68670;48.720;9.118;2023-05-07T06:11:31;96775.47;;;13.36;70.66
79242;BME280;68670;48.720;9.118;2023-05-07T06:13:56;96774.72;;;13.45;69.92
79242;BME280;68670;48.720;9.118;2023-05-07T06:16:22;96772.00;;;13.51;69.66
79242;BME280;68670;48.720;9.118;2023-05-07T06:18:47;96772.59;;;13.58;70.89
79242;BME280;68670;48.720;9.118;2023-05-07T06:21:13;96772.09;;;13.66;71.88
79242;BME280;68670;48.720;9.118;2023-05-07T06:23:43;96780.41;;;13.76;71.69
79242;BME280;68670;48.720;9.118;2023-05-07T06:26:09;96774.97;;;13.86;70.76
79242;BME280;68670;48.720;9.118;2023-05-07T06:28:34;96775.84;;;13.92;69.95
79242;BME280;68670;48.720;9.118;2023-05-07T06:31:17;96782.75;;;13.99;72.77
79242;BME280;68670;48.720;9.118;2023-05-07T06:33:45;96770.63;;;14.00;71.35
79242;BME280;68670;48.720;9.118;2023-05-07T06:36:11;96779.44;;;14.02;72.25
79242;BME280;68670;48.720;9.118;2023-05-07T06:38:36;96785.78;;;14.03;71.43
79242;BME280;68670;48.720;9.118;2023-05-07T06:41:05;96790.47;;;14.02;70.95
79242;BME280;68670;48.720;9.118;2023-05-07T06:43:31;96783.84;;;13.98;69.36
79242;BME280;68670;48.720;9.118;2023-05-07T06:45:56;96785.50;;;13.99;71.61
79242;BME280;68670;48.720;9.118;2023-05-07T06:48:21;96785.53;;;14.04;71.41
79242;BME280;68670;48.720;9.118;2023-05-07T06:50:51;96777.84;;;14.11;69.97
79242;BME280;68670;48.720;9.118;2023-05-07T06:53:18;96782.88;;;14.25;69.57
79242;BME280;68670;48.720;9.118;2023-05-07T06:55:43;96778.22;;;14.35;70.61
79242;BME280;68670;48.720;9.118;2023-05-07T06:58:08;96782.38;;;14.38;68.64
79242;BME280;68670;48.720;9.118;2023-05-07T07:00:34;96774.16;;;14.43;68.85
79242;BME280;68670;48.720;9.118;2023-05-07T07:03:05;96772.00;;;14.55;69.01
79242;BME280;68670;48.720;9.118;2023-05-07T07:05:32;96770.34;;;14.64;68.55
79242;BME280;68670;48.720;9.118;2023-05-07T07:07:57;96779.19;;;14.76;68.49
79242;BME280;68670;48.720;9.118;2023-05-07T07:10:23;96774.81;;;14.81;70.32
79242;BME280;68670;48.720;9.118;2023-05-07T07:12:48;96786.41;;;14.98;70.47
79242;BME280;68670;48.720;9.118;2023-05-07T07:15:16;96775.38;;;15.08;70.25
79242;BME280;68670;48.720;9.118;2023-05-07T07:17:44;96775.41;;;15.18;68.38
79242;BME280;68670;48.720;9.118;2023-05-07T07:20:10;96775.94;;;15.30;68.32
79242;BME280;68670;48.720;9.118;2023-05-07T07:22:38;96772.63;;;15.49;68.50
79242;BME280;68670;48.720;9.118;2023-05-07T07:25:05;96777.59;;;15.67;68.31
79242;BME280;68670;48.720;9.118;2023-05-07T07:27:31;96774.56;;;15.78;66.62
79242;BME280;68670;48.720;9.118;2023-05-07T07:29:56;96785.56;;;15.94;68.53
79242;BME280;68670;48.720;9.118;2023-05-07T07:32:24;96764.81;;;16.06;65.66
79242;BME280;68670;48.720;9.118;2023-05-07T07:34:49;96768.66;;;16.21;67.32
79242;BME280;68670;48.720;9.118;2023-05-07T07:37:16;96771.31;;;16.36;66.97
79242;BME280;68670;48.720;9.118;2023-05-07T07:39:47;96772.38;;;16.50;66.28
79242;BME280;68670;48.720;9.118;2023-05-07T07:42:12;96772.59;;;16.64;66.76
79242;BME280;68670;48.720;9.118;2023-05-07T07:44:39;96777.25;;;16.73;66.75
79242;BME280;68670;48.720;9.118;2023-05-07T07:47:05;96773.88;;;16.87;66.95
79242;BME280;68670;48.720;9.118;2023-05-07T07:49:30;96779.31;;;16.97;67.08
79242;BME280;68670;48.720;9.118;2023-05-07T07:51:55;96774.00;;;17.05;65.84
79242;BME280;68670;48.720;9.118;2023-05-07T07:54:24;96776.50;;;17.07;64.24
79242;BME280;68670;48.720;9.118;2023-05-07T07:56:49;96776.38;;;17.22;66.45
79242;BME280;68670;48.720;9.118;2023-05-07T07:59:18;96778.78;;;17.34;67.38
79242;BME280;68670;48.720;9.118;2023-05-07T08:01:44;96778.97;;;17.48;66.38
79242;BME280;68670;48.720;9.118;2023-05-07T08:04:13;96770.47;;;17.68;65.33
79242;BME280;68670;48.720;9.118;2023-05-07T08:06:38;96770.44;;;17.73;63.36
79242;BME280;68670;48.720;9.118;2023-05-07T08:09:04;96771.22;;;17.78;62.08
79242;BME280;68670;48.720;9.118;2023-05-07T08:11:29;96778.59;;;17.88;63.91
79242;BME280;68670;48.720;9.118;2023-05-07T08:13:54;96784.50;;;18.05;64.35
79242;BME280;68670;48.720;9.118;2023-05-07T08:16:20;96780.75;;;18.44;63.04
79242;BME280;68670;48.720;9.118;2023-05-07T08:18:46;96788.19;;;19.48;61.35
79242;BME280;68670;48.720;9.118;2023-05-07T08:21:11;96770.06;;;20.56;57.67
79242;BME280;68670;48.720;9.118;2023-05-07T08:23:36;96776.00;;;21.63;54.70
79242;BME280;68670;48.720;9.118;2023-05-07T08:26:02;96777.22;;;22.63;53.43
79242;BME280;68670;48.720;9.118;2023-05-07T08:28:27;96773.09;;;23.26;50.43
79242;BME280;68670;48.720;9.118;2023-05-07T08:30:55;96772.09;;;23.39;47.97
79242;BME280;68670;48.720;9.118;2023-05-07T08:33:21;96767.19;;;23.79;50.50
79242;BME280;68670;48.720;9.118;2023-05-07T08:35:47;96768.53;;;23.65;46.48
79242;BME280;68670;48.720;9.118;2023-05-07T08:38:12;96767.53;;;23.61;49.88
79242;BME280;68670;48.720;9.118;2023-05-07T08:40:40;96765.19;;;23.45;47.20
79242;BME280;68670;48.720;9.118;2023-05-07T08:43:12;96766.56;;;23.57;47.36
79242;BME280;68670;48.720;9.118;2023-05-07T08:45:41;96764.72;;;23.35;45.74
79242;BME280;68670;48.720;9.118;2023-05-07T08:48:16;96761.41;;;23.50;46.98
79242;BME280;68670;48.720;9.118;2023-05-07T08:50:44;96769.84;;;23.59;47.38
79242;BME280;68670;48.720;9.118;2023-05-07T08:53:10;96762.59;;;23.58;49.54
79242;BME280;68670;48.720;9.118;2023-05-07T08:55:35;96770.63;;;23.25;46.15
79242;BME280;68670;48.720;9.118;2023-05-07T08:58:03;96774.09;;;23.22;48.87
79242;BME280;68670;48.720;9.118;2023-05-07T09:00:28;96767.00;;;22.98;45.11
79242;BME280;68670;48.720;9.118;2023-05-07T09:02:54;96764.03;;;23.03;50.79
79242;BME280;68670;48.720;9.118;2023-05-07T09:05:19;96765.81;;;22.91;48.21
79242;BME280;68670;48.720;9.118;2023-05-07T09:07:45;96768.97;;;22.98;48.36
79242;BME280;68670;48.720;9.118;2023-05-07T09:10:11;96774.41;;;23.03;52.35
79242;BME280;68670;48.720;9.118;2023-05-07T09:12:37;96764.72;;;23.26;50.93
79242;BME280;68670;48.720;9.118;2023-05-07T09:15:03;96764.19;;;22.90;47.09
79242;BME280;68670;48.720;9.118;2023-05-07T09:17:31;96767.47;;;22.92;49.14
79242;BME280;68670;48.720;9.118;2023-05-07T09:20:02;96753.59;;;22.69;50.05
79242;BME280;68670;48.720;9.118;2023-05-07T09:22:31;96759.66;;;22.63;50.47
79242;BME280;68670;48.720;9.118;2023-05-07T09:24:59;96758.34;;;22.77;48.48
79242;BME280;68670;48.720;9.118;2023-05-07T09:27:27;96760.09;;;23.13;52.54
79242;BME280;68670;48.720;9.118;2023-05-07T09:29:53;96756.31;;;23.18;48.24
79242;BME280;68670;48.720;9.118;2023-05-07T09:32:20;96754.19;;;23.23;49.30
79242;BME280;68670;48.720;9.118;2023-05-07T09:34:48;96755.50;;;23.52;50.20
79242;BME280;68670;48.720;9.118;2023-05-07T09:37:14;96759.78;;;23.75;49.48
79242;BME280;68670;48.720;9.118;2023-05-07T09:42:11;96758.00;;;23.62;47.83
79242;BME280;68670;48.720;9.118;2023-05-07T09:44:40;96760.25;;;23.86;51.00
79242;BME280;68670;48.720;9.118;2023-05-07T09:47:08;96754.09;;;24.09;48.18
79242;BME280;68670;48.720;9.118;2023-05-07T09:49:39;96751.22;;;24.44;48.79
79242;BME280;68670;48.720;9.118;2023-05-07T09:52:07;96756.59;;;24.58;44.00
79242;BME280;68670;48.720;9.118;2023-05-07T09:54:35;96755.16;;;24.81;45.56
79242;BME280;68670;48.720;9.118;2023-05-07T09:57:05;96742.38;;;25.01;43.69
79242;BME280;68670;48.720;9.118;2023-05-07T09:59:39;96748.13;;;25.25;42.73
79242;BME280;68670;48.720;9.118;2023-05-07T10:02:06;96754.63;;;25.17;44.50
79242;BME280;68670;48.720;9.118;2023-05-07T10:04:36;96741.97;;;25.11;46.06
79242;BME280;68670;48.720;9.118;2023-05-07T10:07:06;96741.69;;;25.04;41.42
79242;BME280;68670;48.720;9.118;2023-05-07T10:09:38;96737.19;;;25.32;45.28
79242;BME280;68670;48.720;9.118;2023-05-07T10:12:05;96729.44;;;25.50;42.49
79242;BME280;68670;48.720;9.118;2023-05-07T10:14:31;96727.06;;;25.61;41.61
79242;BME280;68670;48.720;9.118;2023-05-07T10:16:57;96724.16;;;26.02;40.95
79242;BME280;68670;48.720;9.118;2023-05-07T10:19:23;96725.34;;;26.14;40.45
79242;BME280;68670;48.720;9.118;2023-05-07T10:21:54;96725.34;;;26.14;40.16
79242;BME280;68670;48.720;9.118;2023-05-07T10:24:25;96722.94;;;26.24;41.91
79242;BME280;68670;48.720;9.118;2023-05-07T10:26:53;96719.38;;;26.60;40.66
79242;BME280;68670;48.720;9.118;2023-05-07T10:34:40;96711.94;;;27.57;39.30
79242;BME280;68670;48.720;9.118;2023-05-07T10:37:07;96706.28;;;28.13;37.07
79242;BME280;68670;48.720;9.118;2023-05-07T10:39:37;96710.53;;;27.91;34.81
79242;BME280;68670;48.720;9.118;2023-05-07T10:42:13;96704.81;;;27.87;36.02
79242;BME280;68670;48.720;9.118;2023-05-07T10:44:40;96709.75;;;27.50;35.19
79242;BME280;68670;48.720;9.118;2023-05-07T10:47:10;96703.75;;;27.12;36.35
79242;BME280;68670;48.720;9.118;2023-05-07T10:52:35;96705.75;;;27.51;35.17
79242;BME280;68670;48.720;9.118;2023-05-07T10:57:50;96707.63;;;28.03;41.07
79242;BME280;68670;48.720;9.118;2023-05-07T11:05:31;96692.53;;;28.39;35.40
79242;BME280;68670;48.720;9.118;2023-05-07T11:07:59;96698.81;;;27.89;34.95
79242;BME280;68670;48.720;9.118;2023-05-07T11:10:53;96701.56;;;27.73;35.75
79242;BME280;68670;48.720;9.118;2023-05-07T11:13:45;96699.28;;;27.91;34.65
79242;BME280;68670;48.720;9.118;2023-05-07T11:18:47;96689.75;;;27.67;34.82
79242;BME280;68670;48.720;9.118;2023-05-07T11:21:31;96682.56;;;26.90;34.91
79242;BME280;68670;48.720;9.118;2023-05-07T11:24:02;96693.72;;;26.37;37.82
79242;BME280;68670;48.720;9.118;2023-05-07T11:26:41;96684.06;;;26.14;36.00
79242;BME280;68670;48.720;9.118;2023-05-07T11:29:22;96692.72;;;25.64;37.13
79242;BME280;68670;48.720;9.118;2023-05-07T11:31:51;96683.84;;;25.20;41.62
79242;BME280;68670;48.720;9.118;2023-05-07T11:34:22;96690.53;;;24.57;40.42
79242;BME280;68670;48.720;9.118;2023-05-07T11:36:49;96694.09;;;23.98;40.22
79242;BME280;68670;48.720;9.118;2023-05-07T11:39:29;96690.78;;;23.96;41.60
79242;BME280;68670;48.720;9.118;2023-05-07T11:41:57;96692.00;;;23.78;42.61
79242;BME280;68670;48.720;9.118;2023-05-07T11:44:25;96684.47;;;23.53;41.78
79242;BME280;68670;48.720;9.118;2023-05-07T11:46:50;96683.00;;;23.38;44.96
79242;BME280;68670;48.720;9.118;2023-05-07T11:49:18;96687.94;;;23.15;47.43
79242;BME280;68670;48.720;9.118;2023-05-07T11:51:44;96691.09;;;23.05;47.16
79242;BME280;68670;48.720;9.118;2023-05-07T11:54:17;96689.91;;;22.89;43.53
79242;BME280;68670;48.720;9.118;2023-05-07T11:56:46;96693.31;;;22.77;43.54
79242;BME280;68670;48.720;9.118;2023-05-07T11:59:11;96706.94;;;22.61;42.29
79242;BME280;68670;48.720;9.118;2023-05-07T12:01:39;96709.63;;;22.27;43.86
79242;BME280;68670;48.720;9.118;2023-05-07T12:04:07;96730.47;;;21.98;45.58
79242;BME280;68670;48.720;9.118;2023-05-07T12:06:36;96717.75;;;21.30;51.52
79242;BME280;68670;48.720;9.118;2023-05-07T12:09:04;96711.25;;;20.85;53.98
79242;BME280;68670;48.720;9.118;2023-05-07T12:11:38;96718.56;;;20.45;54.61
79242;BME280;68670;48.720;9.118;2023-05-07T12:14:06;96722.44;;;20.17;53.22
79242;BME280;68670;48.720;9.118;2023-05-07T12:16:34;96721.38;;;19.85;53.15
79242;BME280;68670;48.720;9.118;2023-05-07T12:19:02;96735.75;;;19.60;52.92
79242;BME280;68670;48.720;9.118;2023-05-07T12:21:31;96743.56;;;19.58;52.58
79242;BME280;68670;48.720;9.118;2023-05-07T12:23:59;96739.66;;;19.07;53.25
79242;BME280;68670;48.720;9.118;2023-05-07T12:26:24;96756.53;;;18.73;54.38
79242;BME280;68670;48.720;9.118;2023-05-07T12:28:54;96753.88;;;18.63;53.23
79242;BME280;68670;48.720;9.118;2023-05-07T12:31:20;96752.78;;;18.59;53.67
79242;BME280;68670;48.720;9.118;2023-05-07T12:33:47;96765.88;;;18.35;52.54
79242;BME280;68670;48.720;9.118;2023-05-07T12:36:13;96769.44;;;18.17;52.63
79242;BME280;68670;48.720;9.118;2023-05-07T12:38:39;96774.25;;;18.06;53.25
79242;BME280;68670;48.720;9.118;2023-05-07T12:41:08;96776.84;;;17.97;54.60
79242;BME280;68670;48.720;9.118;2023-05-07T12:43:37;96801.25;;;17.95;56.45
79242;BME280;68670;48.720;9.118;2023-05-07T12:46:07;96809.59;;;17.90;56.72
79242;BME280;68670;48.720;9.118;2023-05-07T12:48:43;96820.81;;;17.80;57.32
79242;BME280;68670;48.720;9.118;2023-05-07T12:51:11;96824.78;;;17.69;57.69
79242;BME280;68670;48.720;9.118;2023-05-07T12:53:42;96826.47;;;17.60;57.15
79242;BME280;68670;48.720;9.118;2023-05-07T12:56:08;96825.44;;;17.51;57.57
79242;BME280;68670;48.720;9.118;2023-05-07T12:58:34;96834.34;;;17.48;55.82
79242;BME280;68670;48.720;9.118;2023-05-07T13:01:07;96844.91;;;17.40;55.71
79242;BME280;68670;48.720;9.118;2023-05-07T13:03:37;96849.88;;;17.43;61.73
79242;BME280;68670;48.720;9.118;2023-05-07T13:06:07;96855.47;;;17.33;61.20
79242;BME280;68670;48.720;9.118;2023-05-07T13:08:38;96865.56;;;17.14;62.10
79242;BME280;68670;48.720;9.118;2023-05-07T13:11:15;96866.16;;;17.06;67.00
79242;BME280;68670;48.720;9.118;2023-05-07T13:13:45;96847.47;;;16.88;65.44
79242;BME280;68670;48.720;9.118;2023-05-07T13:16:13;96826.75;;;16.75;62.36
79242;BME280;68670;48.720;9.118;2023-05-07T13:18:40;96833.19;;;16.55;60.84
79242;BME280;68670;48.720;9.118;2023-05-07T13:21:10;96836.84;;;16.25;63.95